Latest Weather Observations for Archerfield

IDQ60901

Issued at 11:35 pm EST Sunday 20 April 2014 (issued every 10 minutes, with the page automatically refreshed every 10 minutes)

About weather observations | Map of Brisbane area stations | Latest observations for Brisbane area | Other Formats
Station Details ID: 040211 Name: ARCHERFIELD AIRPORT Lat: -27.57 Lon: 153.01 Height: 12.5 m
Data from the previous 72 hours. | See also: Recent months at Archerfield
Date/Time
EST
Tmp

°C
App
Tmp
°C
Dew
Point
°C
Rel
Hum
%
Delta-T

°C
Wind Press
QNH
hPa
Press
MSL
hPa
Rain
since
9 am
mm
Dir
 
Spd
km/h
Gust
km/h
Spd
kts
Gust
kts
20/11:30pm 19.0 19.0 14.1 73 2.8 ENE 7 9 4 5 1018.5 - 0.0
20/11:00pm 19.9 20.3 15.3 75 2.7 NNE 7 7 4 4 1018.5 - 0.0
20/10:30pm 19.0 19.4 15.3 79 2.2 NNE 7 9 4 5 1018.6 - 0.0
20/10:00pm 18.7 19.1 15.2 80 2.1 N 7 9 4 5 1018.6 - 0.0
20/09:30pm 18.7 18.6 15.0 79 2.2 N 9 11 5 6 1018.5 - 0.0
20/09:00pm 20.2 20.9 16.0 77 2.5 NE 7 11 4 6 1018.4 1018.3 0.0
20/08:30pm 19.0 19.7 15.5 80 2.1 N 6 7 3 4 1018.2 - 0.0
20/08:00pm 19.4 20.0 15.7 79 2.2 N 7 9 4 5 1018.1 - 0.0
20/07:30pm 19.8 19.2 15.7 77 2.4 N 13 15 7 8 1017.8 - 0.0
20/07:00pm 20.3 19.7 15.7 75 2.7 N 13 17 7 9 1017.5 - 0.0
20/06:30pm 20.6 19.6 14.7 69 3.5 NNE 13 15 7 8 1017.1 - 0.0
20/06:00pm 20.4 19.1 12.4 60 4.5 N 11 17 6 9 1016.8 1016.7 0.0
20/05:30pm 22.1 19.6 10.9 49 6.2 NNE 15 19 8 10 1016.4 - 0.0
20/05:00pm 24.3 21.3 10.6 42 7.6 NNE 17 20 9 11 1016.0 - 0.0
20/04:30pm 25.7 22.7 10.7 39 8.4 NNE 17 22 9 12 1015.6 - 0.0
20/04:00pm 27.2 25.4 9.5 33 9.8 NNE 9 22 5 12 1015.5 - 0.0
20/03:30pm 27.7 26.0 10.0 33 9.9 NNW 9 15 5 8 1015.4 - 0.0
20/03:00pm 28.3 27.6 10.0 32 10.3 SW 4 11 2 6 1015.5 1015.4 0.0
20/02:30pm 27.9 27.6 11.5 36 9.4 WNW 4 9 2 5 1015.5 - 0.0
20/02:00pm 27.9 25.5 10.1 33 10.0 WNW 13 19 7 10 1015.7 - 0.0
20/01:30pm 25.9 24.3 10.1 37 8.8 WNW 9 17 5 9 1015.9 - 0.0
20/01:00pm 28.1 28.0 12.0 36 9.3 E 4 13 2 7 1016.1 - 0.0
20/12:30pm 26.8 24.4 8.7 32 9.9 WSW 11 20 6 11 1016.5 - 0.0
20/12:00pm 27.2 27.5 13.5 42 8.1 W 4 9 2 5 1016.9 1016.8 0.0
20/11:30am 26.5 26.8 14.9 49 7.0 NE 7 11 4 6 1017.4 - 0.0
20/11:00am 25.7 26.4 15.7 54 6.1 W 6 13 3 7 1017.9 - 0.0
20/10:30am 24.5 25.4 15.1 55 5.6 W 4 9 2 5 1018.3 - 0.0
20/10:00am 23.2 23.5 14.5 58 5.1 SW 6 11 3 6 1018.7 - 0.0
20/09:30am 22.0 21.8 13.6 59 4.9 WSW 7 13 4 7 1018.7 - 0.0
20/09:00am 20.9 21.0 13.8 64 4.1 SW 6 9 3 5 1018.7 1018.6 0.0
20/08:30am 19.3 19.1 13.7 70 3.2 SW 7 9 4 5 1018.6 - 0.0
20/08:00am 18.0 18.0 14.1 78 2.2 SW 7 9 4 5 1018.5 - 0.0
20/07:30am 16.1 17.1 13.2 83 1.6 CALM 0 0 0 0 1018.4 - 0.0
20/07:00am 14.5 15.4 13.0 91 0.8 CALM 0 0 0 0 1018.0 - 0.0
20/06:30am 13.0 13.4 11.2 89 0.9 CALM 0 0 0 0 1017.6 - 0.0
20/06:00am 12.9 12.2 11.3 90 0.8 S 6 7 3 4 1017.3 1017.2 0.0
20/05:30am 13.1 13.5 11.3 89 1.0 CALM 0 0 0 0 1016.8 - 0.0
20/05:00am 13.7 14.2 11.6 87 1.1 CALM 0 0 0 0 1016.5 - 0.0
20/04:30am 14.1 14.7 12.0 87 1.1 CALM 0 0 0 0 1016.3 - 0.0
20/04:00am 13.9 14.4 11.6 86 1.2 CALM 0 0 0 0 1016.3 - 0.0
20/03:30am 13.7 13.9 10.7 82 1.6 CALM 0 0 0 0 1016.1 - 0.0
20/03:00am 14.6 14.8 11.9 84 1.5 S 2 7 1 4 1016.1 1016.0 0.0
20/02:30am 14.4 13.3 12.1 86 1.2 S 9 11 5 6 1016.0 - 0.0
20/02:00am 14.9 15.3 12.6 86 1.3 SSE 2 7 1 4 1015.9 - 0.0
20/01:30am 15.3 13.8 13.0 86 1.3 S 13 15 7 8 1016.0 - 0.0
20/01:00am 15.4 14.8 13.4 88 1.1 S 9 13 5 7 1016.2 - 0.0
20/12:30am 15.3 16.3 13.1 87 1.2 CALM 0 0 0 0 1016.3 - 0.0
20/12:00am 15.2 16.0 12.5 84 1.5 SSE 0 2 0 1 1016.4 1016.3 0.0
 
Date/Time
EST
Tmp

°C
App
Tmp
°C
Dew
Point
°C
Rel
Hum
%
Delta-T

°C
Wind Press
QNH
hPa
Press
MSL
hPa
Rain
since
9 am
mm
Dir
 
Spd
km/h
Gust
km/h
Spd
kts
Gust
kts
19/11:30pm 15.4 16.3 12.9 85 1.4 CALM 0 0 0 0 1016.6 - 0.0
19/11:00pm 15.2 15.9 12.3 83 1.6 CALM 0 0 0 0 1016.6 - 0.0
19/10:30pm 16.2 16.7 12.9 81 1.8 S 2 7 1 4 1016.6 - 0.0
19/10:00pm 17.0 16.5 12.7 76 2.4 S 7 9 4 5 1016.6 - 0.0
19/09:30pm 18.2 18.0 13.5 74 2.7 S 7 9 4 5 1016.5 - 0.0
19/09:00pm 19.9 20.9 13.1 65 3.9 CALM 0 0 0 0 1016.4 1016.3 0.0
19/08:30pm 20.0 21.0 13.2 65 3.9 CALM 0 0 0 0 1016.1 - 0.0
19/08:00pm 19.3 20.1 12.6 65 3.8 CALM 0 0 0 0 1015.9 - 0.0
19/07:30pm 20.5 19.7 13.0 62 4.3 ENE 9 11 5 6 1015.5 - 0.0
19/07:00pm 21.4 20.2 12.8 58 4.9 ENE 11 15 6 8 1015.1 - 0.0
19/06:30pm 22.0 20.4 12.8 56 5.2 E 13 19 7 10 1014.5 - 0.0
19/06:00pm 23.1 20.3 12.7 52 6.0 E 19 24 10 13 1014.1 1014.0 0.0
19/05:30pm 23.7 20.4 12.7 50 6.3 E 22 30 12 16 1013.7 - 0.0
19/05:00pm 26.5 26.2 8.5 32 9.7 CALM 0 0 0 0 1013.4 - 0.0
19/04:30pm 26.8 25.7 10.5 36 9.1 SSE 7 11 4 6 1013.1 - 0.0
19/04:00pm 27.2 26.1 8.6 31 10.1 SSW 4 11 2 6 1012.9 - 0.0
19/03:30pm 27.4 24.5 9.7 33 9.8 W 15 19 8 10 1012.9 - 0.0
19/03:00pm 27.4 25.9 9.3 32 10.0 W 7 13 4 7 1012.9 1012.8 0.0
19/02:30pm 27.5 24.6 9.8 33 9.9 WNW 15 20 8 11 1013.0 - 0.0
19/02:00pm 27.3 23.6 10.1 34 9.6 WNW 20 30 11 16 1013.2 - 0.0
19/01:30pm 27.0 22.7 9.4 33 9.7 WSW 22 35 12 19 1013.4 - 0.0
19/01:00pm 27.2 25.0 10.8 36 9.3 W 13 20 7 11 1013.7 - 0.0
19/12:30pm 26.7 24.7 11.6 39 8.6 SW 13 20 7 11 1014.2 - 0.0
19/12:00pm 26.0 23.7 10.6 38 8.6 SW 13 20 7 11 1014.8 1014.7 0.0
19/11:30am 25.9 24.3 11.6 40 8.1 WSW 11 19 6 10 1015.4 - 0.0
19/11:00am 25.0 24.6 14.2 51 6.4 SW 9 15 5 8 1016.0 - 0.0
19/10:30am 24.2 22.4 13.4 51 6.3 SW 15 20 8 11 1016.4 - 0.0
19/10:00am 23.4 22.5 13.6 54 5.7 WSW 11 19 6 10 1016.6 - 0.0
19/09:30am 22.3 20.6 13.6 58 5.0 WSW 15 19 8 10 1016.9 - 0.0
19/09:00am 21.6 19.1 13.5 60 4.7 SW 19 24 10 13 1017.1 1017.0 0.0
19/08:30am 20.0 17.7 13.0 64 4.0 SW 17 24 9 13 1017.2 - 0.0
19/08:00am 19.0 17.3 12.3 65 3.7 SW 13 17 7 9 1017.0 - 0.0
19/07:30am 17.8 16.9 12.7 72 2.8 SW 9 11 5 6 1016.7 - 0.0
19/07:00am 16.0 15.1 12.6 80 1.9 SSW 9 11 5 6 1016.6 - 0.0
19/06:30am 14.6 13.5 11.9 84 1.5 SSW 9 11 5 6 1016.4 - 0.0
19/06:00am 14.5 13.1 12.2 86 1.2 SSW 11 13 6 7 1016.2 1016.1 0.0
19/05:30am 14.4 13.4 12.3 87 1.1 SSW 9 11 5 6 1016.1 - 0.0
19/05:00am 14.6 13.8 12.8 89 1.0 SSW 9 13 5 7 1015.9 - 0.0
19/04:30am 14.6 13.8 13.0 90 0.9 S 9 11 5 6 1015.6 - 0.0
19/04:00am 14.9 14.2 13.1 89 1.0 S 9 13 5 7 1015.6 - 0.0
19/03:30am 15.1 14.4 13.3 89 1.0 S 9 9 5 5 1015.3 - 0.0
19/03:00am 15.2 15.2 13.6 90 0.9 SW 6 7 3 4 1015.5 1015.4 0.0
19/02:30am 15.6 16.1 14.1 91 0.8 SSW 4 7 2 4 1015.7 - 0.0
19/02:00am 15.2 15.1 13.4 89 1.0 W 6 7 3 4 1015.7 - 0.0
19/01:30am 15.5 14.9 13.5 88 1.1 W 9 13 5 7 1015.7 - 0.0
19/01:00am 16.4 16.9 15.6 95 0.5 SW 7 9 4 5 1015.8 - 0.0
19/12:38am 16.5 17.2 15.5 94 0.6 SW 6 7 3 4 1015.8 - 0.0
19/12:30am 16.1 16.6 15.0 93 0.6 SW 6 7 3 4 1015.8 - 0.0
19/12:00am 16.2 16.3 14.4 89 1.0 SSW 7 7 4 4 1015.7 1015.6 0.0
 
Date/Time
EST
Tmp

°C
App
Tmp
°C
Dew
Point
°C
Rel
Hum
%
Delta-T

°C
Wind Press
QNH
hPa
Press
MSL
hPa
Rain
since
9 am
mm
Dir
 
Spd
km/h
Gust
km/h
Spd
kts
Gust
kts
18/11:30pm 17.3 17.8 14.9 86 1.4 SSE 6 7 3 4 1015.7 - 0.0
18/11:23pm 17.7 19.4 15.1 85 1.5 CALM 0 7 0 4 1015.7 - 0.0
18/11:05pm 18.2 18.8 15.3 83 1.7 ENE 6 9 3 5 1015.8 - 0.0
18/11:00pm 18.9 19.3 15.4 80 2.1 ENE 7 9 4 5 1015.9 - 0.0
18/10:30pm 19.2 20.3 16.6 85 1.6 NNE 6 7 3 4 1015.9 - 0.0
18/10:00pm 19.4 19.8 16.4 83 1.8 NNE 9 11 5 6 1016.0 - 0.0
18/09:30pm 18.9 18.8 16.1 84 1.7 N 11 13 6 7 1016.0 - 0.0
18/09:00pm 20.5 21.3 17.3 82 2.0 NNE 9 13 5 7 1015.9 1015.8 0.0
18/08:30pm 19.6 20.3 17.0 85 1.6 NNE 9 11 5 6 1015.7 - 0.0
18/08:00pm 20.3 20.6 17.1 82 1.9 NNE 11 15 6 8 1015.6 - 0.0
18/07:30pm 21.0 21.3 17.8 82 2.0 NNE 13 19 7 10 1015.1 - 0.0
18/07:00pm 21.1 21.3 17.7 81 2.1 NNE 13 20 7 11 1014.7 - 0.0
18/06:30pm 21.9 21.2 17.3 75 2.8 NNE 17 22 9 12 1014.3 - 0.0
18/06:00pm 21.8 20.5 15.9 69 3.5 NNE 17 22 9 12 1014.0 1013.9 0.0
18/05:30pm 22.9 22.2 11.9 50 6.2 N 7 9 4 5 1013.6 - 0.0
18/05:00pm 25.3 24.5 11.8 43 7.7 NNW 7 11 4 6 1013.4 - 0.0
18/04:30pm 26.8 25.8 12.4 40 8.3 W 9 13 5 7 1013.2 - 0.0
18/04:00pm 27.1 25.1 11.6 38 8.9 W 13 24 7 13 1013.1 - 0.0
18/03:30pm 27.2 25.9 12.4 40 8.6 W 11 22 6 12 1013.0 - 0.0
18/03:00pm 27.6 27.1 12.8 40 8.7 WNW 7 13 4 7 1013.0 1012.9 0.0
18/02:30pm 27.1 25.0 12.3 39 8.6 W 15 24 8 13 1013.1 - 0.0
18/02:00pm 27.0 25.3 12.3 40 8.5 WSW 13 28 7 15 1013.3 - 0.0
18/01:30pm 27.0 25.9 13.0 42 8.2 NW 11 24 6 13 1013.6 - 0.0
18/01:00pm 26.4 24.7 13.5 45 7.6 SW 15 20 8 11 1013.9 - 0.0
18/12:30pm 26.7 25.6 15.4 50 6.9 WSW 15 26 8 14 1014.4 - 0.0
18/12:00pm 25.8 24.6 14.0 48 7.0 W 13 20 7 11 1015.0 1014.9 0.0
18/11:30am 25.1 25.8 16.0 57 5.5 SW 7 19 4 10 1015.6 - 0.0
18/11:00am 24.6 24.5 16.1 59 5.2 WSW 11 17 6 9 1016.2 - 0.0
18/10:30am 24.5 25.4 16.2 60 5.1 NW 6 13 3 7 1016.6 - 0.0
18/10:00am 23.0 23.5 15.1 61 4.7 WNW 6 9 3 5 1016.8 - 0.0
18/09:30am 22.3 23.1 15.9 67 3.9 SW 6 11 3 6 1017.0 - 0.0
18/09:00am 21.4 22.1 16.1 72 3.2 WSW 7 13 4 7 1017.4 1017.3 0.0
18/08:30am 19.7 20.4 15.6 77 2.4 WSW 6 9 3 5 1017.5 - 0.0
18/08:00am 18.7 19.3 15.9 84 1.7 SW 7 9 4 5 1017.6 - 0.0
18/07:30am 16.9 17.9 15.4 91 0.9 SSW 4 7 2 4 1017.4 - 0.0
18/07:00am 15.8 16.5 14.5 92 0.7 SSW 4 7 2 4 1017.1 - 0.0
18/06:30am 14.4 15.4 13.1 92 0.7 CALM 0 0 0 0 1016.9 - 0.0
18/06:00am 13.5 14.0 11.7 89 1.0 CALM 0 4 0 2 1016.6 1016.5 0.0
18/05:30am 14.6 14.2 12.5 87 1.1 S 6 9 3 5 1016.4 - 0.0
18/05:00am 15.9 17.3 14.4 91 0.9 CALM 0 6 0 3 1016.3 - 0.0
18/04:30am 15.2 16.4 13.7 91 0.8 CALM 0 0 0 0 1016.5 - 0.0
18/04:00am 15.6 17.0 14.3 92 0.7 CALM 0 4 0 2 1016.4 - 0.0
18/03:30am 15.8 16.0 14.3 91 0.9 SW 6 7 3 4 1016.4 - 0.0
18/03:00am 16.2 16.3 14.0 87 1.2 SSW 6 7 3 4 1016.4 1016.3 0.0
18/02:30am 16.3 17.6 14.0 86 1.3 CALM 0 2 0 1 1016.4 - 0.0
18/02:00am 16.9 17.0 14.5 86 1.4 S 7 9 4 5 1016.5 - 0.0
18/01:30am 16.3 16.4 14.0 86 1.3 S 6 7 3 4 1016.8 - 0.0
18/01:00am 16.7 16.5 14.7 88 1.2 S 9 11 5 6 1017.0 - 0.0
18/12:30am 17.1 17.4 14.6 85 1.4 S 6 7 3 4 1017.1 - 0.0
18/12:00am 18.0 18.6 15.3 84 1.6 S 6 7 3 4 1017.3 1017.2 0.0

Latest Capital City Observations: Canberra | Sydney | Melbourne | Brisbane | Adelaide | Perth | Hobart | Darwin

Other Formats:

Comma delimited format used in spreadsheet applications
http://www.bom.gov.au/fwo/IDQ60901/IDQ60901.94575.axf

JavaScript Object Notation format (JSON) in row-major order
http://www.bom.gov.au/fwo/IDQ60901/IDQ60901.94575.json